sensor_id;sensor_type;location;lat;lon;timestamp;temperature;humidity
12307;DHT22;6216;51.146;7.008;2022-11-20T00:00:54;6.80;99.90
12307;DHT22;6216;51.146;7.008;2022-11-20T00:03:22;6.80;99.90
12307;DHT22;6216;51.146;7.008;2022-11-20T00:05:50;6.90;99.90
12307;DHT22;6216;51.146;7.008;2022-11-20T00:08:18;6.90;99.90
12307;DHT22;6216;51.146;7.008;2022-11-20T00:10:46;6.90;99.90
12307;DHT22;6216;51.146;7.008;2022-11-20T00:13:14;6.90;99.90
12307;DHT22;6216;51.146;7.008;2022-11-20T00:15:43;6.90;99.90
12307;DHT22;6216;51.146;7.008;2022-11-20T00:18:11;6.90;99.90
12307;DHT22;6216;51.146;7.008;2022-11-20T00:20:39;6.90;99.90
12307;DHT22;6216;51.146;7.008;2022-11-20T00:23:06;6.90;99.90
12307;DHT22;6216;51.146;7.008;2022-11-20T00:25:36;6.90;99.90
12307;DHT22;6216;51.146;7.008;2022-11-20T00:28:04;6.80;99.90
12307;DHT22;6216;51.146;7.008;2022-11-20T00:30:31;6.90;99.90
12307;DHT22;6216;51.146;7.008;2022-11-20T00:33:01;6.90;99.90
12307;DHT22;6216;51.146;7.008;2022-11-20T00:35:29;6.90;99.90
12307;DHT22;6216;51.146;7.008;2022-11-20T00:37:57;6.90;99.90
12307;DHT22;6216;51.146;7.008;2022-11-20T00:40:25;6.90;99.90
12307;DHT22;6216;51.146;7.008;2022-11-20T00:42:52;6.90;99.90
12307;DHT22;6216;51.146;7.008;2022-11-20T00:45:20;6.90;99.90
12307;DHT22;6216;51.146;7.008;2022-11-20T00:47:48;6.90;99.90
12307;DHT22;6216;51.146;7.008;2022-11-20T00:50:17;6.90;99.90
12307;DHT22;6216;51.146;7.008;2022-11-20T00:52:45;6.90;99.90
12307;DHT22;6216;51.146;7.008;2022-11-20T00:55:13;6.90;99.90
12307;DHT22;6216;51.146;7.008;2022-11-20T00:57:41;6.90;99.90
12307;DHT22;6216;51.146;7.008;2022-11-20T01:00:09;6.90;99.90
12307;DHT22;6216;51.146;7.008;2022-11-20T01:02:37;6.90;99.90
12307;DHT22;6216;51.146;7.008;2022-11-20T01:05:05;6.90;99.90
12307;DHT22;6216;51.146;7.008;2022-11-20T01:07:35;6.90;99.90
12307;DHT22;6216;51.146;7.008;2022-11-20T01:10:03;6.90;99.90
12307;DHT22;6216;51.146;7.008;2022-11-20T01:12:31;6.90;99.90
12307;DHT22;6216;51.146;7.008;2022-11-20T01:14:59;6.90;99.90
12307;DHT22;6216;51.146;7.008;2022-11-20T01:17:27;6.90;99.90
12307;DHT22;6216;51.146;7.008;2022-11-20T01:19:55;6.90;99.90
12307;DHT22;6216;51.146;7.008;2022-11-20T01:22:23;6.90;99.90
12307;DHT22;6216;51.146;7.008;2022-11-20T01:24:52;6.90;99.90
12307;DHT22;6216;51.146;7.008;2022-11-20T01:27:20;6.90;99.90
12307;DHT22;6216;51.146;7.008;2022-11-20T01:29:47;6.90;99.90
12307;DHT22;6216;51.146;7.008;2022-11-20T01:32:15;6.80;99.90
12307;DHT22;6216;51.146;7.008;2022-11-20T01:34:43;6.80;99.90
12307;DHT22;6216;51.146;7.008;2022-11-20T01:37:12;6.80;99.90
12307;DHT22;6216;51.146;7.008;2022-11-20T01:39:39;6.80;99.90
12307;DHT22;6216;51.146;7.008;2022-11-20T01:42:09;6.80;99.90
12307;DHT22;6216;51.146;7.008;2022-11-20T01:44:56;6.80;99.90
12307;DHT22;6216;51.146;7.008;2022-11-20T01:47:29;6.80;99.90
12307;DHT22;6216;51.146;7.008;2022-11-20T01:50:01;6.80;99.90
12307;DHT22;6216;51.146;7.008;2022-11-20T01:52:34;6.80;99.90
12307;DHT22;6216;51.146;7.008;2022-11-20T01:55:05;6.80;99.90
12307;DHT22;6216;51.146;7.008;2022-11-20T01:57:35;6.80;99.90
12307;DHT22;6216;51.146;7.008;2022-11-20T02:00:07;6.80;99.90
12307;DHT22;6216;51.146;7.008;2022-11-20T02:02:36;6.70;99.90
12307;DHT22;6216;51.146;7.008;2022-11-20T02:05:12;6.70;99.90
12307;DHT22;6216;51.146;7.008;2022-11-20T02:07:41;6.70;99.90
12307;DHT22;6216;51.146;7.008;2022-11-20T02:10:10;6.70;99.90
12307;DHT22;6216;51.146;7.008;2022-11-20T02:12:40;6.70;99.90
12307;DHT22;6216;51.146;7.008;2022-11-20T02:15:25;6.70;99.90
12307;DHT22;6216;51.146;7.008;2022-11-20T02:17:56;6.70;99.90
12307;DHT22;6216;51.146;7.008;2022-11-20T02:20:24;6.70;99.90
12307;DHT22;6216;51.146;7.008;2022-11-20T02:22:56;6.70;99.90
12307;DHT22;6216;51.146;7.008;2022-11-20T02:25:27;6.70;99.90
12307;DHT22;6216;51.146;7.008;2022-11-20T02:27:56;6.60;99.90
12307;DHT22;6216;51.146;7.008;2022-11-20T02:30:24;6.50;99.90
12307;DHT22;6216;51.146;7.008;2022-11-20T02:32:52;6.50;99.90
12307;DHT22;6216;51.146;7.008;2022-11-20T02:35:44;6.50;99.90
12307;DHT22;6216;51.146;7.008;2022-11-20T02:38:13;6.50;99.90
12307;DHT22;6216;51.146;7.008;2022-11-20T02:40:43;6.50;99.90
12307;DHT22;6216;51.146;7.008;2022-11-20T02:43:10;6.50;99.90
12307;DHT22;6216;51.146;7.008;2022-11-20T02:45:39;6.50;99.90
12307;DHT22;6216;51.146;7.008;2022-11-20T02:48:07;6.50;99.90
12307;DHT22;6216;51.146;7.008;2022-11-20T02:50:37;6.60;99.90
12307;DHT22;6216;51.146;7.008;2022-11-20T02:53:05;6.60;99.90
12307;DHT22;6216;51.146;7.008;2022-11-20T02:55:33;6.60;99.90
12307;DHT22;6216;51.146;7.008;2022-11-20T02:58:03;6.60;99.90
12307;DHT22;6216;51.146;7.008;2022-11-20T03:00:31;6.60;99.90
12307;DHT22;6216;51.146;7.008;2022-11-20T03:03:01;6.60;99.90
12307;DHT22;6216;51.146;7.008;2022-11-20T03:05:29;6.60;99.90
12307;DHT22;6216;51.146;7.008;2022-11-20T03:07:56;6.50;99.90
12307;DHT22;6216;51.146;7.008;2022-11-20T03:10:24;6.50;99.90
12307;DHT22;6216;51.146;7.008;2022-11-20T03:12:53;6.50;99.90
12307;DHT22;6216;51.146;7.008;2022-11-20T03:15:24;6.50;99.90
12307;DHT22;6216;51.146;7.008;2022-11-20T03:17:53;6.50;99.90
12307;DHT22;6216;51.146;7.008;2022-11-20T03:20:21;6.50;99.90
12307;DHT22;6216;51.146;7.008;2022-11-20T03:22:49;6.50;99.90
12307;DHT22;6216;51.146;7.008;2022-11-20T03:25:17;6.40;99.90
12307;DHT22;6216;51.146;7.008;2022-11-20T03:27:45;6.40;99.90
12307;DHT22;6216;51.146;7.008;2022-11-20T03:30:13;6.40;99.90
12307;DHT22;6216;51.146;7.008;2022-11-20T03:32:43;6.40;99.90
12307;DHT22;6216;51.146;7.008;2022-11-20T03:35:11;6.40;99.90
12307;DHT22;6216;51.146;7.008;2022-11-20T03:37:39;6.40;99.90
12307;DHT22;6216;51.146;7.008;2022-11-20T03:40:08;6.40;99.90
12307;DHT22;6216;51.146;7.008;2022-11-20T03:42:36;6.40;99.90
12307;DHT22;6216;51.146;7.008;2022-11-20T03:45:13;6.30;99.90
12307;DHT22;6216;51.146;7.008;2022-11-20T03:47:43;6.30;99.90
12307;DHT22;6216;51.146;7.008;2022-11-20T03:50:12;6.30;99.90
12307;DHT22;6216;51.146;7.008;2022-11-20T03:52:41;6.30;99.90
12307;DHT22;6216;51.146;7.008;2022-11-20T03:55:09;6.20;99.90
12307;DHT22;6216;51.146;7.008;2022-11-20T03:57:37;6.20;99.90
12307;DHT22;6216;51.146;7.008;2022-11-20T04:00:06;6.20;99.90
12307;DHT22;6216;51.146;7.008;2022-11-20T04:02:34;6.20;99.90
12307;DHT22;6216;51.146;7.008;2022-11-20T04:05:03;6.20;99.90
12307;DHT22;6216;51.146;7.008;2022-11-20T04:07:33;6.20;99.90
12307;DHT22;6216;51.146;7.008;2022-11-20T04:10:02;6.20;99.90
12307;DHT22;6216;51.146;7.008;2022-11-20T04:12:32;6.20;99.90
12307;DHT22;6216;51.146;7.008;2022-11-20T04:15:01;6.20;99.90
12307;DHT22;6216;51.146;7.008;2022-11-20T04:17:28;6.20;99.90
12307;DHT22;6216;51.146;7.008;2022-11-20T04:19:57;6.20;99.90
12307;DHT22;6216;51.146;7.008;2022-11-20T04:22:26;6.20;99.90
12307;DHT22;6216;51.146;7.008;2022-11-20T04:24:54;6.20;99.90
12307;DHT22;6216;51.146;7.008;2022-11-20T04:27:22;6.20;99.90
12307;DHT22;6216;51.146;7.008;2022-11-20T04:29:50;6.20;99.90
12307;DHT22;6216;51.146;7.008;2022-11-20T04:32:18;6.20;99.90
12307;DHT22;6216;51.146;7.008;2022-11-20T04:34:46;6.20;99.90
12307;DHT22;6216;51.146;7.008;2022-11-20T04:37:13;6.20;99.90
12307;DHT22;6216;51.146;7.008;2022-11-20T04:39:43;6.20;99.90
12307;DHT22;6216;51.146;7.008;2022-11-20T04:42:11;6.20;99.90
12307;DHT22;6216;51.146;7.008;2022-11-20T04:44:57;6.20;99.90
12307;DHT22;6216;51.146;7.008;2022-11-20T04:47:25;6.20;99.90
12307;DHT22;6216;51.146;7.008;2022-11-20T04:49:53;6.30;99.90
12307;DHT22;6216;51.146;7.008;2022-11-20T04:52:21;6.30;99.90
12307;DHT22;6216;51.146;7.008;2022-11-20T04:54:50;6.30;99.90
12307;DHT22;6216;51.146;7.008;2022-11-20T04:57:19;6.30;99.90
12307;DHT22;6216;51.146;7.008;2022-11-20T04:59:47;6.30;99.90
12307;DHT22;6216;51.146;7.008;2022-11-20T05:02:15;6.30;99.90
12307;DHT22;6216;51.146;7.008;2022-11-20T05:04:43;6.30;99.90
12307;DHT22;6216;51.146;7.008;2022-11-20T05:07:11;6.40;99.90
12307;DHT22;6216;51.146;7.008;2022-11-20T05:09:39;6.40;99.90
12307;DHT22;6216;51.146;7.008;2022-11-20T05:12:09;6.40;99.90
12307;DHT22;6216;51.146;7.008;2022-11-20T05:14:36;6.30;99.90
12307;DHT22;6216;51.146;7.008;2022-11-20T05:17:04;6.30;99.90
12307;DHT22;6216;51.146;7.008;2022-11-20T05:19:32;6.30;99.90
12307;DHT22;6216;51.146;7.008;2022-11-20T05:22:01;6.30;99.90
12307;DHT22;6216;51.146;7.008;2022-11-20T05:24:28;6.30;99.90
12307;DHT22;6216;51.146;7.008;2022-11-20T05:26:56;6.30;99.90
12307;DHT22;6216;51.146;7.008;2022-11-20T05:29:26;6.30;99.90
12307;DHT22;6216;51.146;7.008;2022-11-20T05:31:54;6.30;99.90
12307;DHT22;6216;51.146;7.008;2022-11-20T05:34:22;6.20;99.90
12307;DHT22;6216;51.146;7.008;2022-11-20T05:36:50;6.20;99.90
12307;DHT22;6216;51.146;7.008;2022-11-20T05:39:18;6.20;99.90
12307;DHT22;6216;51.146;7.008;2022-11-20T05:41:46;6.20;99.90
12307;DHT22;6216;51.146;7.008;2022-11-20T05:44:35;6.20;99.90
12307;DHT22;6216;51.146;7.008;2022-11-20T05:47:03;6.20;99.90
12307;DHT22;6216;51.146;7.008;2022-11-20T05:49:31;6.20;99.90
12307;DHT22;6216;51.146;7.008;2022-11-20T05:51:59;6.20;99.90
12307;DHT22;6216;51.146;7.008;2022-11-20T05:54:27;6.20;99.90
12307;DHT22;6216;51.146;7.008;2022-11-20T05:56:55;6.20;99.90
12307;DHT22;6216;51.146;7.008;2022-11-20T05:59:23;6.20;99.90
12307;DHT22;6216;51.146;7.008;2022-11-20T06:01:52;6.20;99.90
12307;DHT22;6216;51.146;7.008;2022-11-20T06:04:20;6.30;99.90
12307;DHT22;6216;51.146;7.008;2022-11-20T06:06:48;6.30;99.90
12307;DHT22;6216;51.146;7.008;2022-11-20T06:09:16;6.30;99.90
12307;DHT22;6216;51.146;7.008;2022-11-20T06:11:44;6.30;99.90
12307;DHT22;6216;51.146;7.008;2022-11-20T06:14:12;6.30;99.90
12307;DHT22;6216;51.146;7.008;2022-11-20T06:16:39;6.30;99.90
12307;DHT22;6216;51.146;7.008;2022-11-20T06:19:09;6.30;99.90
12307;DHT22;6216;51.146;7.008;2022-11-20T06:21:37;6.30;99.90
12307;DHT22;6216;51.146;7.008;2022-11-20T06:24:05;6.30;99.90
12307;DHT22;6216;51.146;7.008;2022-11-20T06:26:33;6.30;99.90
12307;DHT22;6216;51.146;7.008;2022-11-20T06:29:01;6.30;99.90
12307;DHT22;6216;51.146;7.008;2022-11-20T06:31:29;6.30;99.90
12307;DHT22;6216;51.146;7.008;2022-11-20T06:33:59;6.30;99.90
12307;DHT22;6216;51.146;7.008;2022-11-20T06:36:28;6.30;99.90
12307;DHT22;6216;51.146;7.008;2022-11-20T06:38:56;6.30;99.90
12307;DHT22;6216;51.146;7.008;2022-11-20T06:41:24;6.40;99.90
12307;DHT22;6216;51.146;7.008;2022-11-20T06:43:52;6.30;99.90
12307;DHT22;6216;51.146;7.008;2022-11-20T06:46:20;6.30;99.90
12307;DHT22;6216;51.146;7.008;2022-11-20T06:48:49;6.40;99.90
12307;DHT22;6216;51.146;7.008;2022-11-20T06:51:18;6.30;99.90
12307;DHT22;6216;51.146;7.008;2022-11-20T06:53:48;6.30;99.90
12307;DHT22;6216;51.146;7.008;2022-11-20T06:56:16;6.30;99.90
12307;DHT22;6216;51.146;7.008;2022-11-20T06:58:44;6.30;99.90
12307;DHT22;6216;51.146;7.008;2022-11-20T07:01:13;6.20;99.90
12307;DHT22;6216;51.146;7.008;2022-11-20T07:03:42;6.20;99.90
12307;DHT22;6216;51.146;7.008;2022-11-20T07:06:10;6.20;99.90
12307;DHT22;6216;51.146;7.008;2022-11-20T07:08:38;6.20;99.90
12307;DHT22;6216;51.146;7.008;2022-11-20T07:11:07;6.10;99.90
12307;DHT22;6216;51.146;7.008;2022-11-20T07:13:35;6.10;99.90
12307;DHT22;6216;51.146;7.008;2022-11-20T07:16:06;6.10;99.90
12307;DHT22;6216;51.146;7.008;2022-11-20T07:18:35;6.10;99.90
12307;DHT22;6216;51.146;7.008;2022-11-20T07:21:05;6.10;99.90
12307;DHT22;6216;51.146;7.008;2022-11-20T07:23:34;6.10;99.90
12307;DHT22;6216;51.146;7.008;2022-11-20T07:26:03;6.10;99.90
12307;DHT22;6216;51.146;7.008;2022-11-20T07:28:33;6.10;99.90
12307;DHT22;6216;51.146;7.008;2022-11-20T07:31:01;6.10;99.90
12307;DHT22;6216;51.146;7.008;2022-11-20T07:33:30;6.10;99.90
12307;DHT22;6216;51.146;7.008;2022-11-20T07:35:58;6.10;99.90
12307;DHT22;6216;51.146;7.008;2022-11-20T07:38:27;6.10;99.90
12307;DHT22;6216;51.146;7.008;2022-11-20T07:40:55;6.10;99.90
12307;DHT22;6216;51.146;7.008;2022-11-20T07:43:25;6.20;99.90
12307;DHT22;6216;51.146;7.008;2022-11-20T07:45:56;6.20;99.90
12307;DHT22;6216;51.146;7.008;2022-11-20T07:48:25;6.20;99.90
12307;DHT22;6216;51.146;7.008;2022-11-20T07:50:53;6.20;99.90
12307;DHT22;6216;51.146;7.008;2022-11-20T07:53:22;6.20;99.90
12307;DHT22;6216;51.146;7.008;2022-11-20T07:55:50;6.20;99.90
12307;DHT22;6216;51.146;7.008;2022-11-20T07:58:19;6.20;99.90
12307;DHT22;6216;51.146;7.008;2022-11-20T08:00:47;6.20;99.90
12307;DHT22;6216;51.146;7.008;2022-11-20T08:03:16;6.20;99.90
12307;DHT22;6216;51.146;7.008;2022-11-20T08:05:50;6.20;99.90
12307;DHT22;6216;51.146;7.008;2022-11-20T08:08:18;6.20;99.90
12307;DHT22;6216;51.146;7.008;2022-11-20T08:10:46;6.20;99.90
12307;DHT22;6216;51.146;7.008;2022-11-20T08:13:14;6.20;99.90
12307;DHT22;6216;51.146;7.008;2022-11-20T08:15:59;6.20;99.90
12307;DHT22;6216;51.146;7.008;2022-11-20T08:18:28;6.30;99.90
12307;DHT22;6216;51.146;7.008;2022-11-20T08:21:00;6.30;99.90
12307;DHT22;6216;51.146;7.008;2022-11-20T08:23:28;6.30;99.90
12307;DHT22;6216;51.146;7.008;2022-11-20T08:25:56;6.40;99.90
12307;DHT22;6216;51.146;7.008;2022-11-20T08:28:24;6.40;99.90
12307;DHT22;6216;51.146;7.008;2022-11-20T08:30:58;6.50;99.90
12307;DHT22;6216;51.146;7.008;2022-11-20T08:33:28;6.50;99.90
12307;DHT22;6216;51.146;7.008;2022-11-20T08:35:59;6.50;99.90
12307;DHT22;6216;51.146;7.008;2022-11-20T08:38:27;6.50;99.90
12307;DHT22;6216;51.146;7.008;2022-11-20T08:40:57;6.60;99.90
12307;DHT22;6216;51.146;7.008;2022-11-20T08:43:42;6.60;99.90
12307;DHT22;6216;51.146;7.008;2022-11-20T08:46:10;6.60;99.90
12307;DHT22;6216;51.146;7.008;2022-11-20T08:48:39;6.60;99.90
12307;DHT22;6216;51.146;7.008;2022-11-20T08:51:07;6.60;99.90
12307;DHT22;6216;51.146;7.008;2022-11-20T08:53:35;6.60;99.90
12307;DHT22;6216;51.146;7.008;2022-11-20T08:56:04;6.70;99.90
12307;DHT22;6216;51.146;7.008;2022-11-20T08:58:32;6.70;99.90
12307;DHT22;6216;51.146;7.008;2022-11-20T09:01:20;6.70;99.90
12307;DHT22;6216;51.146;7.008;2022-11-20T09:03:51;6.80;99.90
12307;DHT22;6216;51.146;7.008;2022-11-20T09:06:19;6.80;99.90
12307;DHT22;6216;51.146;7.008;2022-11-20T09:08:47;6.80;99.90
12307;DHT22;6216;51.146;7.008;2022-11-20T09:11:14;6.80;99.90
12307;DHT22;6216;51.146;7.008;2022-11-20T09:13:42;6.80;99.90
12307;DHT22;6216;51.146;7.008;2022-11-20T09:16:10;6.80;99.90
12307;DHT22;6216;51.146;7.008;2022-11-20T09:18:38;6.80;99.90
12307;DHT22;6216;51.146;7.008;2022-11-20T09:21:10;6.80;99.90
12307;DHT22;6216;51.146;7.008;2022-11-20T09:23:39;6.70;99.90
12307;DHT22;6216;51.146;7.008;2022-11-20T09:26:10;6.70;99.90
12307;DHT22;6216;51.146;7.008;2022-11-20T09:28:38;6.70;99.90
12307;DHT22;6216;51.146;7.008;2022-11-20T09:31:07;6.70;99.90
12307;DHT22;6216;51.146;7.008;2022-11-20T09:33:35;6.60;99.90
12307;DHT22;6216;51.146;7.008;2022-11-20T09:36:04;6.70;99.90
12307;DHT22;6216;51.146;7.008;2022-11-20T09:38:33;6.60;99.90
12307;DHT22;6216;51.146;7.008;2022-11-20T09:41:04;6.60;99.90
12307;DHT22;6216;51.146;7.008;2022-11-20T09:43:44;6.60;99.90
12307;DHT22;6216;51.146;7.008;2022-11-20T09:46:17;6.60;99.90
12307;DHT22;6216;51.146;7.008;2022-11-20T09:48:58;6.50;99.90
12307;DHT22;6216;51.146;7.008;2022-11-20T09:51:36;6.60;99.90
12307;DHT22;6216;51.146;7.008;2022-11-20T09:54:15;6.70;99.90
12307;DHT22;6216;51.146;7.008;2022-11-20T09:56:46;6.70;99.90
12307;DHT22;6216;51.146;7.008;2022-11-20T09:59:28;6.80;99.90
12307;DHT22;6216;51.146;7.008;2022-11-20T10:01:57;6.90;99.90
12307;DHT22;6216;51.146;7.008;2022-11-20T10:04:28;6.90;99.90
12307;DHT22;6216;51.146;7.008;2022-11-20T10:07:05;6.90;99.90
12307;DHT22;6216;51.146;7.008;2022-11-20T10:09:56;6.90;99.90
12307;DHT22;6216;51.146;7.008;2022-11-20T10:12:34;6.90;99.90
12307;DHT22;6216;51.146;7.008;2022-11-20T10:15:12;6.80;99.90
12307;DHT22;6216;51.146;7.008;2022-11-20T10:17:55;6.90;99.90
12307;DHT22;6216;51.146;7.008;2022-11-20T10:20:30;6.90;99.90
12307;DHT22;6216;51.146;7.008;2022-11-20T10:23:21;6.90;99.90
12307;DHT22;6216;51.146;7.008;2022-11-20T10:26:00;7.00;99.90
12307;DHT22;6216;51.146;7.008;2022-11-20T10:28:39;7.00;99.90
12307;DHT22;6216;51.146;7.008;2022-11-20T10:31:29;7.00;99.90
12307;DHT22;6216;51.146;7.008;2022-11-20T10:34:02;7.00;99.90
12307;DHT22;6216;51.146;7.008;2022-11-20T10:36:42;7.00;99.90
12307;DHT22;6216;51.146;7.008;2022-11-20T10:39:16;6.90;99.90
12307;DHT22;6216;51.146;7.008;2022-11-20T10:41:52;6.90;99.90
12307;DHT22;6216;51.146;7.008;2022-11-20T10:44:22;7.00;99.90
12307;DHT22;6216;51.146;7.008;2022-11-20T10:47:13;7.00;99.90
12307;DHT22;6216;51.146;7.008;2022-11-20T10:49:42;7.00;99.90
12307;DHT22;6216;51.146;7.008;2022-11-20T10:52:16;7.00;99.90
12307;DHT22;6216;51.146;7.008;2022-11-20T10:54:50;7.00;99.90
12307;DHT22;6216;51.146;7.008;2022-11-20T10:57:35;7.00;99.90
12307;DHT22;6216;51.146;7.008;2022-11-20T11:00:10;7.00;99.90
12307;DHT22;6216;51.146;7.008;2022-11-20T11:02:42;7.00;99.90
12307;DHT22;6216;51.146;7.008;2022-11-20T11:05:20;6.90;99.90
12307;DHT22;6216;51.146;7.008;2022-11-20T11:07:56;6.90;99.90
12307;DHT22;6216;51.146;7.008;2022-11-20T11:10:27;7.00;99.90
12307;DHT22;6216;51.146;7.008;2022-11-20T11:12:58;7.00;99.90
12307;DHT22;6216;51.146;7.008;2022-11-20T11:15:37;6.90;99.90
12307;DHT22;6216;51.146;7.008;2022-11-20T11:18:08;6.80;99.90
12307;DHT22;6216;51.146;7.008;2022-11-20T11:20:37;6.90;99.90
12307;DHT22;6216;51.146;7.008;2022-11-20T11:23:28;6.90;99.90
12307;DHT22;6216;51.146;7.008;2022-11-20T11:25:57;6.80;99.90
12307;DHT22;6216;51.146;7.008;2022-11-20T11:28:28;6.90;99.90
12307;DHT22;6216;51.146;7.008;2022-11-20T11:30:56;6.90;99.90
12307;DHT22;6216;51.146;7.008;2022-11-20T11:33:25;6.90;99.90
12307;DHT22;6216;51.146;7.008;2022-11-20T11:35:55;6.90;99.90
12307;DHT22;6216;51.146;7.008;2022-11-20T11:38:29;6.90;99.90
12307;DHT22;6216;51.146;7.008;2022-11-20T11:40:58;6.90;99.90
12307;DHT22;6216;51.146;7.008;2022-11-20T11:43:30;6.90;99.90
12307;DHT22;6216;51.146;7.008;2022-11-20T11:46:29;6.90;99.90
12307;DHT22;6216;51.146;7.008;2022-11-20T11:49:16;7.00;99.90
12307;DHT22;6216;51.146;7.008;2022-11-20T11:52:01;7.00;99.90
12307;DHT22;6216;51.146;7.008;2022-11-20T11:54:34;6.90;99.90
12307;DHT22;6216;51.146;7.008;2022-11-20T11:57:10;7.00;99.90
12307;DHT22;6216;51.146;7.008;2022-11-20T11:59:48;6.90;99.90
12307;DHT22;6216;51.146;7.008;2022-11-20T12:02:29;6.90;99.90
12307;DHT22;6216;51.146;7.008;2022-11-20T12:05:02;6.90;99.90
12307;DHT22;6216;51.146;7.008;2022-11-20T12:07:39;6.90;99.90
12307;DHT22;6216;51.146;7.008;2022-11-20T12:10:20;6.90;99.90
12307;DHT22;6216;51.146;7.008;2022-11-20T12:12:53;6.90;99.90
12307;DHT22;6216;51.146;7.008;2022-11-20T12:15:33;6.90;99.90
12307;DHT22;6216;51.146;7.008;2022-11-20T12:18:01;6.90;99.90
12307;DHT22;6216;51.146;7.008;2022-11-20T12:20:35;7.00;99.90
12307;DHT22;6216;51.146;7.008;2022-11-20T12:23:14;7.00;99.90
12307;DHT22;6216;51.146;7.008;2022-11-20T12:25:47;7.00;99.90
12307;DHT22;6216;51.146;7.008;2022-11-20T12:28:51;7.10;99.90
12307;DHT22;6216;51.146;7.008;2022-11-20T12:31:35;7.10;99.90
12307;DHT22;6216;51.146;7.008;2022-11-20T12:34:25;7.10;99.90
12307;DHT22;6216;51.146;7.008;2022-11-20T12:37:04;7.20;99.90
12307;DHT22;6216;51.146;7.008;2022-11-20T12:39:41;7.20;99.90
12307;DHT22;6216;51.146;7.008;2022-11-20T12:42:27;7.20;99.90
12307;DHT22;6216;51.146;7.008;2022-11-20T12:45:30;7.20;99.90
12307;DHT22;6216;51.146;7.008;2022-11-20T12:48:27;7.20;99.90
12307;DHT22;6216;51.146;7.008;2022-11-20T12:51:19;7.20;99.90
12307;DHT22;6216;51.146;7.008;2022-11-20T12:53:59;7.00;99.90
12307;DHT22;6216;51.146;7.008;2022-11-20T12:56:38;7.00;99.90
12307;DHT22;6216;51.146;7.008;2022-11-20T12:59:27;6.90;99.90
12307;DHT22;6216;51.146;7.008;2022-11-20T13:02:18;7.00;99.90
12307;DHT22;6216;51.146;7.008;2022-11-20T13:05:07;7.00;99.90
12307;DHT22;6216;51.146;7.008;2022-11-20T13:07:40;7.00;99.90
12307;DHT22;6216;51.146;7.008;2022-11-20T13:10:18;7.00;99.90
12307;DHT22;6216;51.146;7.008;2022-11-20T13:12:54;7.00;99.90
12307;DHT22;6216;51.146;7.008;2022-11-20T13:15:42;7.10;99.90
12307;DHT22;6216;51.146;7.008;2022-11-20T13:18:15;7.00;99.90
12307;DHT22;6216;51.146;7.008;2022-11-20T13:21:22;7.10;99.90
12307;DHT22;6216;51.146;7.008;2022-11-20T13:23:51;7.10;99.90
12307;DHT22;6216;51.146;7.008;2022-11-20T13:26:20;7.00;99.90
12307;DHT22;6216;51.146;7.008;2022-11-20T13:29:11;7.10;99.90
12307;DHT22;6216;51.146;7.008;2022-11-20T13:32:06;7.00;99.90
12307;DHT22;6216;51.146;7.008;2022-11-20T13:34:59;6.90;99.90
12307;DHT22;6216;51.146;7.008;2022-11-20T13:37:31;6.90;99.90
12307;DHT22;6216;51.146;7.008;2022-11-20T13:40:21;7.00;99.90
12307;DHT22;6216;51.146;7.008;2022-11-20T13:43:00;7.10;99.90
12307;DHT22;6216;51.146;7.008;2022-11-20T13:45:32;7.10;99.90
12307;DHT22;6216;51.146;7.008;2022-11-20T13:48:17;7.10;99.90
12307;DHT22;6216;51.146;7.008;2022-11-20T13:53:54;7.20;99.90
12307;DHT22;6216;51.146;7.008;2022-11-20T13:56:34;7.20;99.90
12307;DHT22;6216;51.146;7.008;2022-11-20T13:59:16;7.10;99.90
12307;DHT22;6216;51.146;7.008;2022-11-20T14:01:49;7.10;99.90
12307;DHT22;6216;51.146;7.008;2022-11-20T14:04:21;7.20;99.90
12307;DHT22;6216;51.146;7.008;2022-11-20T14:06:51;7.20;99.90
12307;DHT22;6216;51.146;7.008;2022-11-20T14:09:28;7.20;99.90
12307;DHT22;6216;51.146;7.008;2022-11-20T14:11:57;7.10;99.90
12307;DHT22;6216;51.146;7.008;2022-11-20T14:14:26;7.20;99.90
12307;DHT22;6216;51.146;7.008;2022-11-20T14:17:05;7.20;99.90
12307;DHT22;6216;51.146;7.008;2022-11-20T14:19:34;7.20;99.90
12307;DHT22;6216;51.146;7.008;2022-11-20T14:22:10;7.30;99.90
12307;DHT22;6216;51.146;7.008;2022-11-20T14:24:39;7.30;99.90
12307;DHT22;6216;51.146;7.008;2022-11-20T14:27:13;7.40;99.90
12307;DHT22;6216;51.146;7.008;2022-11-20T14:29:43;7.40;99.90
12307;DHT22;6216;51.146;7.008;2022-11-20T14:32:15;7.30;99.90
12307;DHT22;6216;51.146;7.008;2022-11-20T14:34:45;7.30;99.90
12307;DHT22;6216;51.146;7.008;2022-11-20T14:37:20;7.30;99.90
12307;DHT22;6216;51.146;7.008;2022-11-20T14:39:51;7.30;99.90
12307;DHT22;6216;51.146;7.008;2022-11-20T14:42:21;7.30;99.90
12307;DHT22;6216;51.146;7.008;2022-11-20T14:44:50;7.20;99.90
12307;DHT22;6216;51.146;7.008;2022-11-20T14:47:20;7.30;99.90
12307;DHT22;6216;51.146;7.008;2022-11-20T14:49:50;7.30;99.90
12307;DHT22;6216;51.146;7.008;2022-11-20T14:52:20;7.30;99.90
12307;DHT22;6216;51.146;7.008;2022-11-20T14:54:51;7.20;99.90
12307;DHT22;6216;51.146;7.008;2022-11-20T14:57:25;7.30;99.90
12307;DHT22;6216;51.146;7.008;2022-11-20T15:00:06;7.30;99.90
12307;DHT22;6216;51.146;7.008;2022-11-20T15:02:39;7.30;99.90
12307;DHT22;6216;51.146;7.008;2022-11-20T15:05:07;7.30;99.90
12307;DHT22;6216;51.146;7.008;2022-11-20T15:07:38;7.30;99.90
12307;DHT22;6216;51.146;7.008;2022-11-20T15:10:13;7.30;99.90
12307;DHT22;6216;51.146;7.008;2022-11-20T15:12:48;7.20;99.90
12307;DHT22;6216;51.146;7.008;2022-11-20T15:15:21;7.20;99.90
12307;DHT22;6216;51.146;7.008;2022-11-20T15:17:49;7.20;99.90
12307;DHT22;6216;51.146;7.008;2022-11-20T15:20:17;7.20;99.90
12307;DHT22;6216;51.146;7.008;2022-11-20T15:22:45;7.20;99.90
12307;DHT22;6216;51.146;7.008;2022-11-20T15:25:16;7.10;99.90
12307;DHT22;6216;51.146;7.008;2022-11-20T15:27:45;7.10;99.90
12307;DHT22;6216;51.146;7.008;2022-11-20T15:30:16;7.10;99.90
12307;DHT22;6216;51.146;7.008;2022-11-20T15:32:45;7.20;99.90
12307;DHT22;6216;51.146;7.008;2022-11-20T15:35:14;7.20;99.90
12307;DHT22;6216;51.146;7.008;2022-11-20T15:37:42;7.30;99.90
12307;DHT22;6216;51.146;7.008;2022-11-20T15:40:11;7.30;99.90
12307;DHT22;6216;51.146;7.008;2022-11-20T15:42:40;7.40;99.90
12307;DHT22;6216;51.146;7.008;2022-11-20T15:45:37;7.40;99.90
12307;DHT22;6216;51.146;7.008;2022-11-20T15:48:09;7.40;99.90
12307;DHT22;6216;51.146;7.008;2022-11-20T15:50:43;7.30;99.90
12307;DHT22;6216;51.146;7.008;2022-11-20T15:53:14;7.20;99.90
12307;DHT22;6216;51.146;7.008;2022-11-20T15:55:42;7.20;99.90
12307;DHT22;6216;51.146;7.008;2022-11-20T15:58:12;7.20;99.90
12307;DHT22;6216;51.146;7.008;2022-11-20T16:00:40;7.20;99.90
12307;DHT22;6216;51.146;7.008;2022-11-20T16:03:10;7.20;99.90
12307;DHT22;6216;51.146;7.008;2022-11-20T16:05:38;7.20;99.90
12307;DHT22;6216;51.146;7.008;2022-11-20T16:08:06;7.20;99.90
12307;DHT22;6216;51.146;7.008;2022-11-20T16:10:37;7.20;99.90
12307;DHT22;6216;51.146;7.008;2022-11-20T16:13:13;7.20;99.90
12307;DHT22;6216;51.146;7.008;2022-11-20T16:16:02;7.20;99.90
12307;DHT22;6216;51.146;7.008;2022-11-20T16:18:32;7.10;99.90
12307;DHT22;6216;51.146;7.008;2022-11-20T16:21:00;7.20;99.90
12307;DHT22;6216;51.146;7.008;2022-11-20T16:23:28;7.20;99.90
12307;DHT22;6216;51.146;7.008;2022-11-20T16:25:56;7.20;99.90
12307;DHT22;6216;51.146;7.008;2022-11-20T16:28:26;7.20;99.90
12307;DHT22;6216;51.146;7.008;2022-11-20T16:30:55;7.20;99.90
12307;DHT22;6216;51.146;7.008;2022-11-20T16:33:23;7.20;99.90
12307;DHT22;6216;51.146;7.008;2022-11-20T16:35:51;7.20;99.90